createdAt,value
2019-04-27T00:00:15.913Z,10.54
2019-04-27T00:01:16.135Z,10.60
2019-04-27T00:02:18.205Z,10.51
2019-04-27T00:03:16.617Z,10.44
2019-04-27T00:04:19.217Z,10.68
2019-04-27T00:05:16.788Z,10.68
2019-04-27T00:06:17.037Z,10.63
2019-04-27T00:07:17.119Z,10.41
2019-04-27T00:08:17.345Z,10.37
2019-04-27T00:09:17.430Z,10.34
2019-04-27T00:10:20.465Z,10.46
2019-04-27T00:11:17.815Z,10.51
2019-04-27T00:12:22.850Z,10.59
2019-04-27T00:13:18.215Z,10.53
2019-04-27T00:14:18.415Z,10.51
2019-04-27T00:15:18.627Z,10.59
2019-04-27T00:16:18.854Z,10.67
2019-04-27T00:17:21.109Z,10.61
2019-04-27T00:18:19.138Z,10.63
2019-04-27T00:19:19.363Z,10.68
2019-04-27T00:20:21.659Z,10.64
2019-04-27T00:21:19.746Z,10.67
2019-04-27T00:22:19.941Z,10.72
2019-04-27T00:23:20.141Z,10.69
2019-04-27T00:24:20.359Z,10.78
2019-04-27T00:25:20.559Z,10.82
2019-04-27T00:26:20.757Z,10.84
2019-04-27T00:27:20.905Z,10.72
2019-04-27T00:28:20.976Z,10.78
2019-04-27T00:29:21.159Z,10.75
2019-04-27T00:30:21.360Z,10.82
2019-04-27T00:31:23.306Z,10.76
2019-04-27T00:32:23.128Z,10.63
2019-04-27T00:33:23.436Z,10.69
2019-04-27T00:34:23.574Z,10.64
2019-04-27T00:35:23.472Z,10.71
2019-04-27T00:36:23.281Z,10.74
2019-04-27T00:37:23.741Z,10.74
2019-04-27T00:38:23.335Z,10.69
2019-04-27T00:39:23.152Z,10.76
2019-04-27T00:40:23.626Z,10.75
2019-04-27T00:41:24.294Z,10.69
2019-04-27T00:42:23.671Z,10.51
2019-04-27T00:43:23.871Z,10.42
2019-04-27T00:44:24.128Z,10.35
2019-04-27T00:45:24.212Z,10.40
2019-04-27T00:46:24.330Z,10.41
2019-04-27T00:47:24.404Z,10.37
2019-04-27T00:48:24.590Z,10.34
2019-04-27T00:49:24.771Z,10.30
2019-04-27T00:50:25.007Z,10.31
2019-04-27T00:51:25.086Z,10.31
2019-04-27T00:52:25.283Z,10.22
2019-04-27T00:53:25.472Z,10.02
2019-04-27T00:54:25.650Z,9.97
2019-04-27T00:55:25.909Z,10.12
2019-04-27T00:56:26.363Z,10.07
2019-04-27T00:57:28.129Z,10.05
2019-04-27T00:58:26.381Z,9.98
2019-04-27T00:59:26.595Z,9.99
2019-04-27T01:00:26.797Z,9.97
2019-04-27T01:01:27.015Z,9.99
2019-04-27T01:02:27.202Z,10.04
2019-04-27T01:03:27.388Z,10.10
2019-04-27T01:04:27.594Z,10.13
2019-04-27T01:05:27.793Z,10.13
2019-04-27T01:06:27.903Z,10.09
2019-04-27T01:07:28.132Z,10.17
2019-04-27T01:08:28.194Z,10.17
2019-04-27T01:09:28.442Z,10.22
2019-04-27T01:10:28.507Z,10.16
2019-04-27T01:11:28.707Z,10.16
2019-04-27T01:12:28.908Z,10.10
2019-04-27T01:13:29.482Z,10.16
2019-04-27T01:14:29.294Z,10.12
2019-04-27T01:15:29.493Z,10.25
2019-04-27T01:16:29.683Z,10.25
2019-04-27T01:17:29.882Z,10.19
2019-04-27T01:18:30.120Z,10.07
2019-04-27T01:19:30.201Z,10.10
2019-04-27T01:20:30.391Z,10.26
2019-04-27T01:21:30.590Z,10.23
2019-04-27T01:22:30.769Z,10.25
2019-04-27T01:23:31.028Z,10.13
2019-04-27T01:24:31.107Z,10.05
2019-04-27T01:25:31.288Z,10.07
2019-04-27T01:26:31.481Z,10.04
2019-04-27T01:27:31.689Z,10.05
2019-04-27T01:28:31.890Z,10.07
2019-04-27T01:29:32.114Z,10.04
2019-04-27T01:30:32.201Z,9.95
2019-04-27T01:31:32.401Z,10.02
2019-04-27T01:32:33.960Z,10.12
2019-04-27T01:33:32.771Z,10.09
2019-04-27T01:34:32.959Z,10.07
2019-04-27T01:35:33.203Z,10.04
2019-04-27T01:36:33.264Z,9.98
2019-04-27T01:37:33.451Z,9.97
2019-04-27T01:38:33.665Z,10.04
2019-04-27T01:39:33.968Z,10.02
2019-04-27T01:40:34.028Z,10.01
2019-04-27T01:41:34.252Z,10.04
2019-04-27T01:42:34.327Z,10.02
2019-04-27T01:43:34.527Z,10.01
2019-04-27T01:44:34.708Z,10.05
2019-04-27T01:45:34.935Z,10.09
2019-04-27T01:46:35.002Z,10.07
2019-04-27T01:47:35.241Z,9.99
2019-04-27T01:48:35.319Z,10.09
2019-04-27T01:49:35.529Z,10.01
2019-04-27T01:50:35.708Z,10.04
2019-04-27T01:51:35.818Z,10.09
2019-04-27T01:52:36.008Z,10.05
2019-04-27T01:53:36.195Z,10.09
2019-04-27T01:54:36.384Z,10.01
2019-04-27T01:55:36.561Z,10.05
2019-04-27T01:56:36.757Z,10.05
2019-04-27T01:57:38.597Z,10.05
2019-04-27T01:58:38.815Z,10.05
2019-04-27T01:59:38.687Z,10.01
2019-04-27T02:00:37.535Z,10.05
2019-04-27T02:01:38.983Z,10.12
2019-04-27T02:02:39.284Z,10.12
2019-04-27T02:03:38.673Z,10.04
2019-04-27T02:04:39.546Z,10.04
2019-04-27T02:05:39.121Z,9.99
2019-04-27T02:06:38.631Z,10.01
2019-04-27T02:07:39.030Z,9.97
2019-04-27T02:08:40.307Z,9.86
2019-04-27T02:09:39.013Z,9.84
2019-04-27T02:10:39.671Z,9.92
2019-04-27T02:11:39.409Z,9.92
2019-04-27T02:12:39.771Z,9.94
2019-04-27T02:13:39.777Z,10.05
2019-04-27T02:14:39.847Z,9.97
2019-04-27T02:15:40.056Z,9.92
2019-04-27T02:16:40.184Z,9.99
2019-04-27T02:17:40.379Z,10.07
2019-04-27T02:18:40.594Z,10.05
2019-04-27T02:19:40.783Z,9.98
2019-04-27T02:20:40.985Z,9.97
2019-04-27T02:21:41.176Z,9.99
2019-04-27T02:22:41.369Z,10.02
2019-04-27T02:23:41.599Z,10.02
2019-04-27T02:24:41.788Z,10.02
2019-04-27T02:25:42.024Z,9.97
2019-04-27T02:26:42.259Z,9.87
2019-04-27T02:27:42.329Z,9.87
2019-04-27T02:28:42.515Z,9.87
2019-04-27T02:29:42.713Z,9.98
2019-04-27T02:30:42.899Z,9.82
2019-04-27T02:31:43.145Z,9.92
2019-04-27T02:32:43.210Z,9.87
2019-04-27T02:33:43.411Z,9.83
2019-04-27T02:34:43.579Z,9.82
2019-04-27T02:35:43.633Z,9.79
2019-04-27T02:36:43.831Z,9.76
2019-04-27T02:37:44.032Z,9.83
2019-04-27T02:38:44.221Z,9.69
2019-04-27T02:39:44.451Z,9.83
2019-04-27T02:40:44.634Z,9.83
2019-04-27T02:41:44.845Z,9.98
2019-04-27T02:42:45.091Z,9.94
2019-04-27T02:43:45.168Z,9.92
2019-04-27T02:44:45.348Z,9.82
2019-04-27T02:45:45.550Z,9.91
2019-04-27T02:46:45.748Z,9.80
2019-04-27T02:47:45.963Z,9.91
2019-04-27T02:48:58.791Z,9.89
2019-04-27T02:49:46.344Z,10.04
2019-04-27T02:50:46.557Z,9.92
2019-04-27T02:51:49.398Z,9.97
2019-04-27T02:52:46.995Z,9.92
2019-04-27T02:53:49.288Z,9.97
2019-04-27T02:54:47.264Z,9.98
2019-04-27T02:55:49.729Z,9.91
2019-04-27T02:56:49.990Z,9.97
2019-04-27T02:57:49.984Z,9.98
2019-04-27T02:58:49.594Z,10.02
2019-04-27T02:59:50.239Z,10.12
2019-04-27T03:00:50.180Z,10.07
2019-04-27T03:01:50.314Z,10.07
2019-04-27T03:02:50.978Z,9.97
2019-04-27T03:03:50.292Z,9.94
2019-04-27T03:04:49.835Z,9.89
2019-04-27T03:05:50.307Z,9.91
2019-04-27T03:06:50.117Z,9.99
2019-04-27T03:07:50.321Z,9.98
2019-04-27T03:08:53.915Z,10.02
2019-04-27T03:09:51.052Z,9.94
2019-04-27T03:10:50.534Z,9.98
2019-04-27T03:11:50.474Z,9.92
2019-04-27T03:12:50.672Z,10.02
2019-04-27T03:13:51.931Z,9.97
2019-04-27T03:14:51.079Z,9.95
2019-04-27T03:15:51.275Z,9.98
2019-04-27T03:16:51.493Z,9.94
2019-04-27T03:17:51.698Z,10.04
2019-04-27T03:18:51.882Z,9.98
2019-04-27T03:19:52.369Z,9.99
2019-04-27T03:20:52.305Z,9.97
2019-04-27T03:21:52.520Z,9.86
2019-04-27T03:22:52.756Z,9.86
2019-04-27T03:23:52.876Z,9.84
2019-04-27T03:24:52.986Z,9.79
2019-04-27T03:25:53.081Z,9.87
2019-04-27T03:26:53.278Z,9.84
2019-04-27T03:27:53.466Z,9.82
2019-04-27T03:28:53.668Z,9.87
2019-04-27T03:29:53.873Z,9.89
2019-04-27T03:30:54.051Z,9.76
2019-04-27T03:31:54.685Z,9.77
2019-04-27T03:32:56.828Z,9.74
2019-04-27T03:33:58.922Z,9.74
2019-04-27T03:34:54.905Z,9.72
2019-04-27T03:35:55.034Z,9.76
2019-04-27T03:36:55.231Z,9.74
2019-04-27T03:37:55.448Z,9.74
2019-04-27T03:38:55.527Z,9.69
2019-04-27T03:39:55.725Z,9.84
2019-04-27T03:40:55.909Z,9.82
2019-04-27T03:41:56.108Z,9.80
2019-04-27T03:42:56.322Z,9.84
2019-04-27T03:43:56.442Z,9.84
2019-04-27T03:44:56.498Z,9.82
2019-04-27T03:45:56.735Z,9.86
2019-04-27T03:46:59.342Z,9.94
2019-04-27T03:47:57.086Z,9.89
2019-04-27T03:48:59.778Z,9.94
2019-04-27T03:49:59.873Z,10.01
2019-04-27T03:50:59.557Z,9.97
2019-04-27T03:52:02.672Z,10.05
2019-04-27T03:52:59.927Z,9.94
2019-04-27T03:54:00.461Z,9.83
2019-04-27T03:54:59.813Z,9.87
2019-04-27T03:55:59.956Z,10.01
2019-04-27T03:56:59.062Z,9.98
2019-04-27T03:58:00.155Z,9.95
2019-04-27T03:58:59.793Z,10.02
2019-04-27T03:59:59.819Z,9.92
2019-04-27T04:01:00.030Z,9.87
2019-04-27T04:02:02.480Z,9.92
2019-04-27T04:03:00.677Z,9.89
2019-04-27T04:04:00.093Z,9.92
2019-04-27T04:05:00.229Z,9.92
2019-04-27T04:06:00.507Z,9.86
2019-04-27T04:07:00.608Z,9.87
2019-04-27T04:08:00.792Z,9.91
2019-04-27T04:09:01.016Z,9.80
2019-04-27T04:10:01.228Z,9.82
2019-04-27T04:11:01.448Z,9.79
2019-04-27T04:12:02.298Z,9.89
2019-04-27T04:13:01.965Z,9.80
2019-04-27T04:14:01.984Z,9.82
2019-04-27T04:15:02.042Z,9.82
2019-04-27T04:16:02.272Z,9.74
2019-04-27T04:17:03.039Z,9.68
2019-04-27T04:18:02.460Z,9.74
2019-04-27T04:19:02.668Z,9.61
2019-04-27T04:20:02.874Z,9.73
2019-04-27T04:21:03.057Z,9.76
2019-04-27T04:22:03.285Z,9.82
2019-04-27T04:23:03.616Z,9.73
2019-04-27T04:24:03.642Z,9.79
2019-04-27T04:25:03.852Z,9.72
2019-04-27T04:26:04.044Z,9.61
2019-04-27T04:27:04.239Z,9.54
2019-04-27T04:28:04.451Z,9.59
2019-04-27T04:29:04.599Z,9.66
2019-04-27T04:30:04.660Z,9.73
2019-04-27T04:31:04.888Z,9.62
2019-04-27T04:32:04.989Z,9.61
2019-04-27T04:33:05.183Z,9.64
2019-04-27T04:34:05.384Z,9.61
2019-04-27T04:35:05.599Z,9.66
2019-04-27T04:36:05.825Z,9.65
2019-04-27T04:37:05.924Z,9.61
2019-04-27T04:38:06.121Z,9.73
2019-04-27T04:39:06.365Z,9.61
2019-04-27T04:40:06.458Z,9.65
2019-04-27T04:41:06.648Z,9.74
2019-04-27T04:42:09.796Z,9.72
2019-04-27T04:43:07.067Z,9.80
2019-04-27T04:44:12.148Z,9.79
2019-04-27T04:45:10.606Z,9.76
2019-04-27T04:46:12.810Z,9.72
2019-04-27T04:47:10.401Z,9.77
2019-04-27T04:48:11.423Z,9.87
2019-04-27T04:49:11.515Z,9.89
2019-04-27T04:50:14.938Z,9.91
2019-04-27T04:51:10.264Z,9.91
2019-04-27T04:52:12.212Z,9.87
2019-04-27T04:53:12.636Z,9.87
2019-04-27T04:54:09.528Z,9.83
2019-04-27T04:55:10.159Z,9.86
2019-04-27T04:56:10.637Z,9.92
2019-04-27T04:57:09.376Z,9.95
2019-04-27T04:58:09.506Z,9.91
2019-04-27T04:59:10.056Z,9.98
2019-04-27T05:00:10.043Z,9.99
2019-04-27T05:01:10.033Z,9.98
2019-04-27T05:02:10.784Z,10.01
2019-04-27T05:03:10.240Z,9.97
2019-04-27T05:04:10.324Z,9.94
2019-04-27T05:05:10.573Z,10.01
2019-04-27T05:06:10.667Z,10.04
2019-04-27T05:07:10.771Z,10.02
2019-04-27T05:08:10.988Z,10.16
2019-04-27T05:09:11.187Z,10.16
2019-04-27T05:10:11.401Z,10.13
2019-04-27T05:11:11.583Z,10.15
2019-04-27T05:12:11.804Z,10.17
2019-04-27T05:13:16.070Z,10.13
2019-04-27T05:14:14.428Z,10.13
2019-04-27T05:15:13.486Z,10.15
2019-04-27T05:16:13.645Z,10.12
2019-04-27T05:17:13.671Z,10.09
2019-04-27T05:18:14.159Z,10.15
2019-04-27T05:19:14.299Z,10.20
2019-04-27T05:20:22.471Z,10.31
2019-04-27T05:21:14.814Z,10.13
2019-04-27T05:22:16.290Z,10.16
2019-04-27T05:23:16.263Z,10.17
2019-04-27T05:24:15.257Z,10.23
2019-04-27T05:25:13.801Z,10.19
2019-04-27T05:26:13.910Z,10.31
2019-04-27T05:27:14.719Z,10.33
2019-04-27T05:28:14.175Z,10.34
2019-04-27T05:29:14.367Z,10.34
2019-04-27T05:30:14.586Z,10.28
2019-04-27T05:31:14.651Z,10.49
2019-04-27T05:32:14.852Z,10.48
2019-04-27T05:33:15.041Z,10.44
2019-04-27T05:34:15.227Z,10.44
2019-04-27T05:35:15.459Z,10.49
2019-04-27T05:36:15.521Z,10.46
2019-04-27T05:37:15.680Z,10.57
2019-04-27T05:38:15.865Z,10.46
2019-04-27T05:39:18.140Z,10.53
2019-04-27T05:40:16.167Z,10.64
2019-04-27T05:41:16.411Z,10.63
2019-04-27T05:42:17.143Z,10.68
2019-04-27T05:43:16.706Z,10.69
2019-04-27T05:44:18.372Z,10.71
2019-04-27T05:45:20.031Z,10.68
2019-04-27T05:46:19.020Z,10.68
2019-04-27T05:47:18.967Z,10.49
2019-04-27T05:48:27.280Z,10.57
2019-04-27T05:49:18.846Z,10.60
2019-04-27T05:50:21.835Z,10.60
2019-04-27T05:51:19.765Z,10.54
2019-04-27T05:52:18.530Z,10.69
2019-04-27T05:53:18.951Z,10.82
2019-04-27T05:54:19.210Z,10.69
2019-04-27T05:55:19.270Z,10.76
2019-04-27T05:56:19.276Z,10.81
2019-04-27T05:57:19.579Z,10.86
2019-04-27T05:58:19.618Z,10.74
2019-04-27T05:59:19.956Z,10.75
2019-04-27T06:00:19.677Z,10.74
2019-04-27T06:01:19.813Z,10.69
2019-04-27T06:02:20.370Z,10.82
2019-04-27T06:03:21.076Z,10.75
2019-04-27T06:04:20.414Z,10.82
2019-04-27T06:05:22.739Z,10.78
2019-04-27T06:06:20.916Z,10.82
2019-04-27T06:07:20.991Z,10.74
2019-04-27T06:08:21.226Z,10.71
2019-04-27T06:09:21.440Z,10.71
2019-04-27T06:10:21.622Z,10.76
2019-04-27T06:11:21.837Z,10.87
2019-04-27T06:12:22.031Z,10.81
2019-04-27T06:13:22.235Z,10.81
2019-04-27T06:14:22.450Z,10.87
2019-04-27T06:15:22.641Z,10.87
2019-04-27T06:16:22.862Z,10.94
2019-04-27T06:17:23.095Z,10.89
2019-04-27T06:18:23.207Z,11.08
2019-04-27T06:19:23.263Z,11.08
2019-04-27T06:20:23.458Z,11.12
2019-04-27T06:21:23.658Z,11.27
2019-04-27T06:22:23.839Z,11.15
2019-04-27T06:23:24.247Z,11.15
2019-04-27T06:24:24.077Z,11.26
2019-04-27T06:25:24.309Z,11.35
2019-04-27T06:26:24.500Z,11.47
2019-04-27T06:27:24.683Z,11.40
2019-04-27T06:28:24.872Z,11.51
2019-04-27T06:29:25.072Z,11.57
2019-04-27T06:30:25.159Z,11.68
2019-04-27T06:31:25.412Z,11.72
2019-04-27T06:32:25.500Z,11.70
2019-04-27T06:33:31.981Z,11.68
2019-04-27T06:34:25.936Z,11.84
2019-04-27T06:35:26.012Z,11.88
2019-04-27T06:36:26.199Z,11.90
2019-04-27T06:37:26.317Z,12.15
2019-04-27T06:38:26.498Z,12.17
2019-04-27T06:39:26.713Z,12.36
2019-04-27T06:40:26.810Z,12.49
2019-04-27T06:41:27.017Z,12.68
2019-04-27T06:42:27.205Z,12.85
2019-04-27T06:43:29.254Z,12.83
2019-04-27T06:44:29.234Z,12.94
2019-04-27T06:45:28.537Z,12.94
2019-04-27T06:46:28.800Z,12.97
2019-04-27T06:47:29.459Z,13.09
2019-04-27T06:48:29.638Z,13.03
2019-04-27T06:49:29.521Z,13.09
2019-04-27T06:50:29.572Z,13.18
2019-04-27T06:51:28.928Z,13.16
2019-04-27T06:52:29.369Z,13.35
2019-04-27T06:53:29.215Z,13.46
2019-04-27T06:54:29.305Z,13.44
2019-04-27T06:55:29.547Z,13.56
2019-04-27T06:56:29.746Z,13.47
2019-04-27T06:57:29.840Z,13.44
2019-04-27T06:58:30.050Z,13.44
2019-04-27T06:59:30.408Z,13.38
2019-04-27T07:00:30.308Z,13.37
2019-04-27T07:01:30.423Z,13.47
2019-04-27T07:02:30.611Z,13.72
2019-04-27T07:03:30.802Z,13.97
2019-04-27T07:04:31.008Z,13.87
2019-04-27T07:05:31.194Z,14.28
2019-04-27T07:06:31.401Z,14.11
2019-04-27T07:07:31.591Z,14.41
2019-04-27T07:08:31.808Z,14.63
2019-04-27T07:09:31.899Z,15.24
2019-04-27T07:10:32.089Z,15.07
2019-04-27T07:11:32.336Z,15.17
2019-04-27T07:12:32.437Z,15.67
2019-04-27T07:13:33.681Z,16.10
2019-04-27T07:14:33.627Z,16.64
2019-04-27T07:15:35.370Z,16.97
2019-04-27T07:16:35.147Z,16.61
2019-04-27T07:17:33.280Z,16.24
2019-04-27T07:18:33.380Z,16.05
2019-04-27T07:19:33.581Z,16.64
2019-04-27T07:20:33.842Z,16.56
2019-04-27T07:21:34.051Z,16.65
2019-04-27T07:22:34.228Z,16.61
2019-04-27T07:23:34.290Z,17.52
2019-04-27T07:24:34.815Z,17.85
2019-04-27T07:25:34.838Z,17.38
2019-04-27T07:26:36.381Z,17.79
2019-04-27T07:27:36.412Z,17.86
2019-04-27T07:28:35.155Z,18.04
2019-04-27T07:29:40.323Z,18.38
2019-04-27T07:30:36.087Z,18.95
2019-04-27T07:31:39.796Z,19.16
2019-04-27T07:32:36.215Z,19.30
2019-04-27T07:33:39.479Z,19.12
2019-04-27T07:34:38.689Z,19.71
2019-04-27T07:35:36.815Z,19.92
2019-04-27T07:36:36.279Z,20.32
2019-04-27T07:37:36.663Z,20.14
2019-04-27T07:38:36.679Z,19.45
2019-04-27T07:39:36.892Z,19.09
2019-04-27T07:40:39.944Z,19.55
2019-04-27T07:41:38.783Z,18.62
2019-04-27T07:42:40.868Z,18.99
2019-04-27T07:43:39.290Z,19.49
2019-04-27T07:44:39.063Z,19.86
2019-04-27T07:45:39.508Z,20.31
2019-04-27T07:46:38.626Z,20.41
2019-04-27T07:47:39.351Z,20.69
2019-04-27T07:48:39.548Z,21.22
2019-04-27T07:49:39.127Z,21.62
2019-04-27T07:50:39.142Z,22.06
2019-04-27T07:51:39.375Z,22.41
2019-04-27T07:52:40.523Z,22.38
2019-04-27T07:53:39.582Z,22.60
2019-04-27T07:54:40.976Z,22.62
2019-04-27T07:55:39.996Z,22.96
2019-04-27T07:56:40.295Z,22.91
2019-04-27T07:57:40.389Z,22.94
2019-04-27T07:58:40.307Z,23.08
2019-04-27T07:59:42.042Z,23.76
2019-04-27T08:00:40.642Z,23.63
2019-04-27T08:01:40.812Z,22.96
2019-04-27T08:02:41.058Z,22.88
2019-04-27T08:03:41.291Z,22.75
2019-04-27T08:04:41.440Z,22.06
2019-04-27T08:05:41.516Z,21.09
2019-04-27T08:06:41.703Z,21.05
2019-04-27T08:07:41.928Z,20.58
2019-04-27T08:08:42.006Z,20.29
2019-04-27T08:09:42.195Z,20.48
2019-04-27T08:10:42.494Z,20.72
2019-04-27T08:11:42.707Z,21.03
2019-04-27T08:12:42.727Z,20.51
2019-04-27T08:13:42.927Z,19.91
2019-04-27T08:14:43.137Z,20.03
2019-04-27T08:15:43.347Z,20.29
2019-04-27T08:16:43.893Z,20.04
2019-04-27T08:17:43.704Z,19.91
2019-04-27T08:18:43.897Z,19.56
2019-04-27T08:19:44.145Z,19.18
2019-04-27T08:20:44.324Z,18.68
2019-04-27T08:21:46.546Z,18.89
2019-04-27T08:22:44.731Z,19.16
2019-04-27T08:23:45.179Z,19.84
2019-04-27T08:24:45.127Z,19.79
2019-04-27T08:25:45.425Z,19.58
2019-04-27T08:26:45.435Z,19.26
2019-04-27T08:27:45.957Z,19.26
2019-04-27T08:28:45.834Z,19.18
2019-04-27T08:29:48.688Z,18.83
2019-04-27T08:30:46.041Z,18.68
2019-04-27T08:31:46.253Z,18.65
2019-04-27T08:32:46.450Z,18.58
2019-04-27T08:33:48.533Z,18.18
2019-04-27T08:34:46.862Z,17.87
2019-04-27T08:35:48.955Z,17.70
2019-04-27T08:36:49.936Z,17.57
2019-04-27T08:37:49.516Z,17.31
2019-04-27T08:38:48.903Z,17.38
2019-04-27T08:39:49.415Z,17.48
2019-04-27T08:40:49.377Z,18.26
2019-04-27T08:41:49.483Z,19.47
2019-04-27T08:42:50.870Z,20.26
2019-04-27T08:43:48.872Z,20.60
2019-04-27T08:44:49.724Z,20.88
2019-04-27T08:45:48.957Z,21.51
2019-04-27T08:46:49.512Z,22.08
2019-04-27T08:47:49.826Z,22.54
2019-04-27T08:48:49.388Z,22.98
2019-04-27T08:49:49.580Z,23.27
2019-04-27T08:50:49.763Z,23.54
2019-04-27T08:51:57.302Z,23.54
2019-04-27T08:52:51.480Z,23.80
2019-04-27T08:53:50.372Z,24.33
2019-04-27T08:54:51.062Z,24.30
2019-04-27T08:55:52.769Z,23.51
2019-04-27T08:56:50.991Z,22.75
2019-04-27T08:57:51.349Z,22.51
2019-04-27T08:58:51.415Z,22.11
2019-04-27T08:59:51.610Z,21.83
2019-04-27T09:00:51.804Z,22.28
2019-04-27T09:01:52.031Z,22.23
2019-04-27T09:02:52.341Z,22.68
2019-04-27T09:03:52.462Z,22.88
2019-04-27T09:04:52.537Z,22.29
2019-04-27T09:05:52.763Z,23.27
2019-04-27T09:06:53.025Z,24.32
2019-04-27T09:07:53.156Z,23.71
2019-04-27T09:08:53.242Z,22.81
2019-04-27T09:09:53.480Z,22.94
2019-04-27T09:10:53.553Z,22.73
2019-04-27T09:11:53.765Z,23.39
2019-04-27T09:12:53.978Z,24.13
2019-04-27T09:13:54.083Z,25.10
2019-04-27T09:14:54.278Z,23.88
2019-04-27T09:15:54.519Z,24.20
2019-04-27T09:17:00.088Z,25.04
2019-04-27T09:17:54.964Z,25.48
2019-04-27T09:18:55.233Z,26.19
2019-04-27T09:19:55.337Z,26.43
2019-04-27T09:20:55.540Z,26.53
2019-04-27T09:21:55.741Z,26.34
2019-04-27T09:22:55.999Z,26.48
2019-04-27T09:23:56.068Z,26.66
2019-04-27T09:24:56.276Z,27.18
2019-04-27T09:25:56.480Z,26.16
2019-04-27T09:26:56.681Z,24.98
2019-04-27T09:27:56.865Z,24.96
2019-04-27T09:28:57.082Z,24.13
2019-04-27T09:29:58.839Z,23.39
2019-04-27T09:30:58.621Z,22.72
2019-04-27T09:32:01.505Z,22.38
2019-04-27T09:32:57.811Z,22.14
2019-04-27T09:33:58.024Z,21.66
2019-04-27T09:34:58.384Z,21.21
2019-04-27T09:35:58.402Z,20.96
2019-04-27T09:36:58.979Z,20.51
2019-04-27T09:37:58.781Z,20.11
2019-04-27T09:38:59.077Z,19.91
2019-04-27T09:39:59.120Z,19.70
2019-04-27T09:40:59.315Z,19.48
2019-04-27T09:41:59.537Z,19.27
2019-04-27T09:42:59.736Z,19.15
2019-04-27T09:44:02.436Z,18.99
2019-04-27T09:45:00.176Z,18.89
2019-04-27T09:46:00.520Z,18.81
2019-04-27T09:47:00.594Z,18.71
2019-04-27T09:48:00.831Z,18.65
2019-04-27T09:49:01.056Z,18.70
2019-04-27T09:50:01.152Z,18.58
2019-04-27T09:51:01.356Z,18.59
2019-04-27T09:52:01.469Z,18.60
2019-04-27T09:53:01.706Z,18.33
2019-04-27T09:54:01.802Z,18.25
2019-04-27T09:55:01.993Z,18.00
2019-04-27T09:56:02.406Z,17.95
2019-04-27T09:57:02.380Z,17.94
2019-04-27T09:58:02.564Z,17.79
2019-04-27T09:59:02.900Z,17.64
2019-04-27T10:00:02.879Z,17.51
2019-04-27T10:01:03.063Z,17.31
2019-04-27T10:02:03.415Z,17.09
2019-04-27T10:03:03.918Z,17.05
2019-04-27T10:04:03.981Z,17.04
2019-04-27T10:05:05.809Z,17.14
2019-04-27T10:06:05.769Z,17.11
2019-04-27T10:07:06.065Z,17.15
2019-04-27T10:08:06.186Z,17.22
2019-04-27T10:09:04.466Z,17.38
2019-04-27T10:10:06.345Z,17.39
2019-04-27T10:11:05.945Z,17.26
2019-04-27T10:12:05.344Z,17.14
2019-04-27T10:13:06.843Z,17.11
2019-04-27T10:14:05.895Z,17.04
2019-04-27T10:15:06.170Z,17.04
2019-04-27T10:16:05.815Z,16.97
2019-04-27T10:17:06.020Z,16.93
2019-04-27T10:18:06.513Z,16.96
2019-04-27T10:19:06.346Z,16.96
2019-04-27T10:20:06.562Z,16.96
2019-04-27T10:21:06.773Z,16.97
2019-04-27T10:22:07.082Z,16.96
2019-04-27T10:23:07.225Z,17.01
2019-04-27T10:24:07.300Z,17.02
2019-04-27T10:25:07.522Z,16.96
2019-04-27T10:26:07.713Z,16.91
2019-04-27T10:27:08.149Z,16.90
2019-04-27T10:28:08.126Z,16.86
2019-04-27T10:29:08.331Z,16.81
2019-04-27T10:30:08.430Z,16.76
2019-04-27T10:31:08.666Z,16.87
2019-04-27T10:32:08.853Z,16.68
2019-04-27T10:33:09.089Z,16.50
2019-04-27T10:34:09.193Z,16.60
2019-04-27T10:35:09.281Z,16.50
2019-04-27T10:36:09.503Z,16.54
2019-04-27T10:37:09.699Z,16.46
2019-04-27T10:38:09.892Z,16.51
2019-04-27T10:39:13.014Z,16.53
2019-04-27T10:40:10.321Z,16.50
2019-04-27T10:41:10.521Z,16.49
2019-04-27T10:42:10.771Z,16.54
2019-04-27T10:43:10.836Z,16.42
2019-04-27T10:44:11.115Z,16.36
2019-04-27T10:45:11.217Z,16.38
2019-04-27T10:46:11.473Z,16.26
2019-04-27T10:47:11.521Z,16.26
2019-04-27T10:48:11.615Z,16.29
2019-04-27T10:49:11.775Z,16.26
2019-04-27T10:50:11.846Z,16.20
2019-04-27T10:51:12.038Z,16.13
2019-04-27T10:52:12.231Z,16.01
2019-04-27T10:53:12.449Z,15.94
2019-04-27T10:54:12.588Z,16.02
2019-04-27T10:55:12.794Z,15.97
2019-04-27T10:56:12.989Z,15.91
2019-04-27T10:57:13.203Z,15.80
2019-04-27T10:58:13.278Z,15.76
2019-04-27T10:59:13.537Z,15.70
2019-04-27T11:00:13.638Z,15.79
2019-04-27T11:01:15.546Z,15.73
2019-04-27T11:02:13.892Z,15.80
2019-04-27T11:03:14.108Z,15.86
2019-04-27T11:04:15.928Z,15.83
2019-04-27T11:05:14.535Z,15.94
2019-04-27T11:06:16.008Z,15.95
2019-04-27T11:07:15.832Z,15.86
2019-04-27T11:08:16.682Z,15.92
2019-04-27T11:09:16.327Z,16.02
2019-04-27T11:10:16.302Z,16.02
2019-04-27T11:11:15.782Z,16.00
2019-04-27T11:12:15.976Z,16.09
2019-04-27T11:13:16.653Z,16.16
2019-04-27T11:14:16.419Z,16.17
2019-04-27T11:15:16.504Z,16.29
2019-04-27T11:16:16.691Z,16.33
2019-04-27T11:17:16.908Z,16.33
2019-04-27T11:18:17.468Z,16.33
2019-04-27T11:19:17.271Z,16.13
2019-04-27T11:20:17.427Z,16.09
2019-04-27T11:21:17.503Z,16.16
2019-04-27T11:22:17.760Z,16.08
2019-04-27T11:23:17.839Z,15.90
2019-04-27T11:24:18.058Z,15.90
2019-04-27T11:25:18.263Z,15.84
2019-04-27T11:26:18.499Z,15.84
2019-04-27T11:27:18.587Z,15.94
2019-04-27T11:28:18.671Z,15.94
2019-04-27T11:29:18.861Z,15.92
2019-04-27T11:30:19.107Z,16.00
2019-04-27T11:31:19.178Z,15.94
2019-04-27T11:32:19.384Z,15.86
2019-04-27T11:33:19.646Z,16.00
2019-04-27T11:34:19.713Z,15.97
2019-04-27T11:35:19.973Z,16.02
2019-04-27T11:36:20.055Z,16.01
2019-04-27T11:37:20.343Z,16.05
2019-04-27T11:38:20.364Z,15.97
2019-04-27T11:39:21.275Z,16.05
2019-04-27T11:40:20.851Z,15.97
2019-04-27T11:41:20.953Z,16.01
2019-04-27T11:42:21.227Z,16.09
2019-04-27T11:43:21.282Z,16.05
2019-04-27T11:44:21.632Z,16.17
2019-04-27T11:45:21.625Z,16.08
2019-04-27T11:46:21.715Z,15.97
2019-04-27T11:47:21.972Z,15.86
2019-04-27T11:48:22.062Z,15.91
2019-04-27T11:49:22.317Z,15.77
2019-04-27T11:50:22.397Z,15.88
2019-04-27T11:51:22.489Z,15.80
2019-04-27T11:52:22.731Z,15.84
2019-04-27T11:53:23.243Z,15.82
2019-04-27T11:54:25.573Z,15.88
2019-04-27T11:55:23.139Z,15.94
2019-04-27T11:56:23.326Z,16.08
2019-04-27T11:57:23.524Z,16.26
2019-04-27T11:58:23.733Z,16.23
2019-04-27T11:59:23.937Z,16.28
2019-04-27T12:00:24.158Z,16.51
2019-04-27T12:01:24.342Z,16.64
2019-04-27T12:02:25.783Z,16.49
2019-04-27T12:03:24.796Z,16.54
2019-04-27T12:04:26.307Z,16.60
2019-04-27T12:05:26.087Z,16.65
2019-04-27T12:06:25.848Z,16.65
2019-04-27T12:07:27.795Z,16.65
2019-04-27T12:08:26.467Z,16.54
2019-04-27T12:09:25.653Z,16.54
2019-04-27T12:10:26.376Z,16.60
2019-04-27T12:11:26.188Z,16.57
2019-04-27T12:12:26.307Z,16.29
2019-04-27T12:13:26.430Z,16.17
2019-04-27T12:14:26.624Z,15.97
2019-04-27T12:15:26.822Z,15.84
2019-04-27T12:16:27.023Z,15.77
2019-04-27T12:17:29.195Z,15.58
2019-04-27T12:18:27.420Z,15.44
2019-04-27T12:19:27.639Z,15.55
2019-04-27T12:20:27.834Z,15.54
2019-04-27T12:21:28.049Z,15.64
2019-04-27T12:22:28.289Z,15.68
2019-04-27T12:23:35.576Z,15.79
2019-04-27T12:24:28.562Z,15.75
2019-04-27T12:25:28.756Z,15.82
2019-04-27T12:26:28.952Z,15.83
2019-04-27T12:27:29.178Z,15.68
2019-04-27T12:28:29.378Z,15.62
2019-04-27T12:29:30.434Z,15.68
2019-04-27T12:30:29.736Z,15.64
2019-04-27T12:31:29.966Z,15.70
2019-04-27T12:32:30.157Z,15.62
2019-04-27T12:33:30.355Z,15.55
2019-04-27T12:34:30.552Z,15.58
2019-04-27T12:35:30.761Z,15.70
2019-04-27T12:36:30.987Z,15.72
2019-04-27T12:37:31.191Z,15.72
2019-04-27T12:38:31.283Z,15.83
2019-04-27T12:39:31.507Z,15.88
2019-04-27T12:40:31.689Z,15.92
2019-04-27T12:41:31.886Z,15.84
2019-04-27T12:42:32.088Z,15.90
2019-04-27T12:43:32.485Z,16.10
2019-04-27T12:44:32.443Z,15.86
2019-04-27T12:45:32.670Z,15.86
2019-04-27T12:46:32.882Z,15.76
2019-04-27T12:47:32.998Z,15.76
2019-04-27T12:48:33.209Z,15.73
2019-04-27T12:49:33.524Z,15.67
2019-04-27T12:50:33.592Z,15.73
2019-04-27T12:51:35.529Z,15.76
2019-04-27T12:52:33.898Z,15.64
2019-04-27T12:53:47.638Z,15.57
2019-04-27T12:54:36.217Z,15.62
2019-04-27T12:55:34.414Z,15.59
2019-04-27T12:56:34.619Z,15.62
2019-04-27T12:57:36.402Z,15.62
2019-04-27T12:58:36.520Z,15.77
2019-04-27T12:59:36.571Z,15.73
2019-04-27T13:00:35.506Z,15.82